Ванино

Карта отелей и гостиниц, располагающихся рядом с аэропортом Ванино :

Ванино Хабаровский край 49° 5' 40.56" N, 140° 16' 22.5012" E
Ванино Хабаровский край 49° 5' 40.56" N, 140° 16' 22.5012" E
Код аэродрома ИКАО: 
HCD5
Код аэродрома RU: 
ХЦД5
Координаты: 
N49.09460° E140.27292°
Превышение над уровнем моря : 
50
Основная полоса: 
09/27
Курс магнитный: 
086,1/266,1
Длина основной ВПП: 
21
Ширина основной ВПП: 
20
Покрытие основной ВПП: 
Твёрдое (асфальт)
Освещение ВПП: 
Нет
Тип: 
Вертодром
Класс аэродрома: 
Принадлежность: 
ГА
Статус: 
Действующий
Сайт: 
E-mail аэродрома: 
Страна: 
Россия
Регион: 
Хабаровский край
Город: 
Дополнительная информация: 
Оператор: нет данных. ПП маркирована по нормативу здравоохранения. Расположена в городе, неподалёку от районной прокуратуры/госпиталя ВМФ.

Найти трансфер

С помощью этой формы Вы можете найти трансфер из аэропорта Ванино в город, аэропорт или вокзал:

Карта места

Javascript is required to view this map.

Погода в аэропортах:

Авиационная погода в Кневичи

Регион: 
Погода METAR: 
UHWW 281930Z 35003MPS 5000 BR BKN020 15/15 Q1011 R25L/0///70 NOSIG RMK QFE757
Время наблюдения: 
2020-09-28T19:30:00Z
Температура C: 
15.0
Точка росы: 
15.0
Направление ветра: 
350
Скорость ветра (узлы): 
6
Метеорологическая видимость: 
3.11
Явления погоды: 
BR
Условия полета: 
MVFR
Аэропорт подробнее: 

Авиационная погода в аэропорту Сокол

Регион: 
Погода METAR: 
UHMM 282000Z 09001MPS 0150 R10/0150N FU FZFG VV001 M01/M02 Q1007 R10/CLRD70 RMK QBB050 MT OBSC QFE740 R28/07002MPS
Время наблюдения: 
2020-09-28T20:00:00Z
Температура C: 
-1.0
Точка росы: 
-2.0
Направление ветра: 
90
Скорость ветра (узлы): 
2
Метеорологическая видимость: 
0.09
Явления погоды: 
FU FZFG
Условия полета: 
LIFR
Аэропорт подробнее: 

Авиационная погода в Усть-Каменогорске

Регион: 
Погода METAR: 
UASK 282000Z 26002MPS 5000 BR BKN031 BKN083 04/03 Q1026 R30/090060 NOSIG RMK QFE743/0991
Время наблюдения: 
2020-09-28T20:00:00Z
Температура C: 
4.0
Точка росы: 
3.0
Направление ветра: 
260
Скорость ветра (узлы): 
4
Метеорологическая видимость: 
3.11
Явления погоды: 
BR
Условия полета: 
MVFR
Аэропорт подробнее: 

Авиационная погода в Полярном

Регион: 
Погода METAR: 
UERP 282000Z 33007G12MPS 3000 -SHSN BLSN BKN009CB OVC100 M03/M03 Q0993 R35/290340 NOSIG RMK QFE701
Время наблюдения: 
2020-09-28T20:00:00Z
Температура C: 
-3.0
Точка росы: 
-3.0
Направление ветра: 
330
Скорость ветра (узлы): 
14
Метеорологическая видимость: 
1.86
Явления погоды: 
-SHSN BLSN
Условия полета: 
IFR
Аэропорт подробнее: